createdAt,value
2019-02-05T00:01:39.459Z,7.77
2019-02-05T00:04:29.737Z,6.33
2019-02-05T00:07:20.194Z,7.07
2019-02-05T00:10:10.895Z,5.27
2019-02-05T00:13:02.017Z,8.43
2019-02-05T00:15:52.677Z,7.63
2019-02-05T00:18:43.237Z,6.73
2019-02-05T00:21:34.317Z,6.23
2019-02-05T00:24:26.497Z,5.27
2019-02-05T00:27:17.190Z,8.00
2019-02-05T00:30:08.596Z,8.33
2019-02-05T00:32:58.776Z,6.40
2019-02-05T00:35:49.756Z,8.43
2019-02-05T00:38:40.649Z,10.77
2019-02-05T00:41:31.396Z,8.20
2019-02-05T00:44:21.996Z,7.17
2019-02-05T00:47:12.513Z,7.33
2019-02-05T00:50:02.699Z,9.83
2019-02-05T00:52:53.356Z,7.50
2019-02-05T00:55:44.236Z,8.60
2019-02-05T00:58:34.967Z,9.83
2019-02-05T01:01:25.536Z,7.20
2019-02-05T01:04:16.816Z,5.50
2019-02-05T01:07:07.756Z,6.57
2019-02-05T01:09:58.337Z,6.53
2019-02-05T01:12:49.304Z,6.40
2019-02-05T01:15:39.835Z,7.20
2019-02-05T01:18:31.476Z,6.13
2019-02-05T01:21:23.778Z,5.77
2019-02-05T01:24:14.153Z,6.47
2019-02-05T01:27:05.058Z,7.33
2019-02-05T01:29:55.149Z,5.07
2019-02-05T01:32:45.777Z,5.73
2019-02-05T01:35:37.357Z,8.33
2019-02-05T01:38:29.036Z,6.40
2019-02-05T01:41:19.277Z,5.67
2019-02-05T01:44:09.836Z,10.57
2019-02-05T01:47:00.557Z,6.90
2019-02-05T01:49:51.496Z,7.37
2019-02-05T01:52:42.271Z,4.57
2019-02-05T01:55:33.494Z,9.13
2019-02-05T01:58:23.556Z,7.17
2019-02-05T02:01:14.114Z,6.83
2019-02-05T02:04:04.341Z,6.47
2019-02-05T02:06:55.276Z,6.07
2019-02-05T02:09:48.344Z,6.07
2019-02-05T02:12:38.551Z,7.03
2019-02-05T02:15:29.025Z,7.30
2019-02-05T02:18:19.076Z,6.37
2019-02-05T02:21:09.357Z,6.97
2019-02-05T02:24:01.338Z,8.40
2019-02-05T02:26:52.483Z,6.20
2019-02-05T02:29:42.810Z,4.77
2019-02-05T02:32:32.942Z,5.90
2019-02-05T02:35:23.680Z,12.53
2019-02-05T02:38:14.676Z,3.23
2019-02-05T02:41:05.584Z,4.63
2019-02-05T02:43:57.379Z,8.83
2019-02-05T02:46:47.900Z,4.90
2019-02-05T02:49:39.117Z,4.30
2019-02-05T02:52:30.070Z,5.10
2019-02-05T02:55:20.154Z,4.97
2019-02-05T02:58:13.507Z,4.73
2019-02-05T03:04:35.166Z,6.23
2019-02-05T03:07:25.308Z,5.23
2019-02-05T03:10:19.767Z,7.83
2019-02-05T03:13:10.163Z,12.00
2019-02-05T03:16:00.559Z,6.27
2019-02-05T03:18:52.401Z,6.03
2019-02-05T03:21:43.482Z,6.73
2019-02-05T03:24:33.656Z,6.43
2019-02-05T03:27:24.283Z,5.90
2019-02-05T03:30:17.563Z,5.23
2019-02-05T03:33:07.907Z,5.30
2019-02-05T03:35:58.690Z,10.67
2019-02-05T03:38:49.559Z,5.67
2019-02-05T03:41:40.719Z,3.07
2019-02-05T03:44:32.601Z,6.13
2019-02-05T03:47:23.022Z,5.47
2019-02-05T03:50:14.337Z,3.97
2019-02-05T03:53:06.159Z,12.50
2019-02-05T03:56:10.340Z,5.13
2019-02-05T03:59:28.698Z,3.33
2019-02-05T04:02:43.139Z,4.90
2019-02-05T04:06:20.579Z,6.63
2019-02-05T04:09:49.739Z,7.63
2019-02-05T04:13:34.659Z,2.77
2019-02-05T04:16:53.059Z,8.93
2019-02-05T04:20:16.439Z,5.60
2019-02-05T04:24:02.481Z,6.07
2019-02-05T04:27:20.580Z,9.97
2019-02-05T04:30:42.500Z,3.50
2019-02-05T04:34:10.184Z,7.00
2019-02-05T04:37:29.160Z,4.13
2019-02-05T04:41:11.965Z,5.17
2019-02-05T04:44:36.200Z,5.40
2019-02-05T04:48:04.080Z,5.23
2019-02-05T04:51:16.722Z,6.03
2019-02-05T04:54:35.598Z,2.97
2019-02-05T04:58:24.578Z,6.33
2019-02-05T05:01:53.268Z,4.03
2019-02-05T05:05:33.401Z,2.90
2019-02-05T05:09:07.780Z,7.83
2019-02-05T05:11:58.320Z,7.50
2019-02-05T05:14:48.559Z,4.50
2019-02-05T05:17:39.296Z,4.20
2019-02-05T05:20:30.978Z,9.43
2019-02-05T05:23:21.078Z,5.47
2019-02-05T05:26:11.439Z,3.73
2019-02-05T05:29:02.038Z,5.90
2019-02-05T05:31:53.359Z,3.63
2019-02-05T05:34:44.832Z,5.13
2019-02-05T05:37:35.456Z,4.77
2019-02-05T05:40:25.600Z,6.87
2019-02-05T05:43:15.885Z,5.37
2019-02-05T05:46:06.182Z,5.20
2019-02-05T05:48:56.877Z,3.60
2019-02-05T05:51:47.580Z,3.73
2019-02-05T05:54:38.343Z,3.67
2019-02-05T05:57:28.467Z,3.80
2019-02-05T06:00:20.079Z,4.50
2019-02-05T06:03:09.842Z,5.07
2019-02-05T06:06:00.561Z,5.43
2019-02-05T06:08:51.442Z,4.17
2019-02-05T06:11:43.298Z,3.40
2019-02-05T06:14:33.839Z,4.87
2019-02-05T06:17:24.839Z,4.47
2019-02-05T06:20:17.158Z,8.40
2019-02-05T06:23:09.544Z,3.40
2019-02-05T06:25:59.750Z,8.93
2019-02-05T06:28:50.479Z,4.00
2019-02-05T06:31:40.808Z,5.47
2019-02-05T06:34:31.620Z,3.30
2019-02-05T06:37:21.759Z,7.00
2019-02-05T06:40:13.761Z,4.83
2019-02-05T06:43:03.877Z,3.13
2019-02-05T06:45:54.040Z,7.90
2019-02-05T06:48:44.218Z,3.53
2019-02-05T06:51:34.958Z,6.13
2019-02-05T06:54:26.664Z,3.43
2019-02-05T06:57:16.900Z,6.33
2019-02-05T07:00:10.698Z,8.23
2019-02-05T07:03:02.959Z,5.07
2019-02-05T07:05:53.022Z,5.03
2019-02-05T07:08:43.543Z,10.90
2019-02-05T07:11:33.739Z,5.10
2019-02-05T07:14:23.719Z,4.20
2019-02-05T07:17:14.443Z,5.10
2019-02-05T07:20:04.905Z,4.80
2019-02-05T07:22:55.966Z,7.10
2019-02-05T07:25:46.779Z,4.20
2019-02-05T07:28:38.717Z,7.07
2019-02-05T07:31:28.798Z,3.43
2019-02-05T07:34:21.204Z,7.33
2019-02-05T07:37:10.608Z,6.13
2019-02-05T07:40:01.079Z,7.27
2019-02-05T07:42:51.436Z,4.30
2019-02-05T07:45:41.865Z,8.60
2019-02-05T07:48:32.401Z,4.83
2019-02-05T07:51:22.638Z,7.23
2019-02-05T07:54:13.238Z,7.33
2019-02-05T07:57:04.158Z,12.13
2019-02-05T07:59:54.820Z,7.63
2019-02-05T08:02:45.366Z,7.83
2019-02-05T08:05:37.198Z,7.70
2019-02-05T08:08:28.098Z,12.67
2019-02-05T08:11:18.499Z,7.43
2019-02-05T08:14:10.163Z,6.63
2019-02-05T08:17:01.218Z,10.80
2019-02-05T08:19:51.639Z,5.87
2019-02-05T08:22:42.270Z,9.30
2019-02-05T08:25:32.770Z,8.40
2019-02-05T08:28:23.278Z,9.67
2019-02-05T08:31:13.842Z,7.60
2019-02-05T08:34:05.364Z,7.93
2019-02-05T08:36:56.684Z,10.37
2019-02-05T08:39:46.659Z,10.77
2019-02-05T08:42:37.100Z,10.90
2019-02-05T08:45:29.038Z,12.03
2019-02-05T08:48:19.339Z,9.80
2019-02-05T08:51:09.678Z,13.47
2019-02-05T08:54:00.141Z,10.80
2019-02-05T08:56:50.239Z,9.53
2019-02-05T08:59:41.398Z,7.40
2019-02-05T09:02:31.959Z,8.83
2019-02-05T09:05:23.757Z,13.90
2019-02-05T09:08:14.811Z,14.87
2019-02-05T09:11:05.577Z,10.00
2019-02-05T09:13:56.269Z,13.53
2019-02-05T09:16:48.379Z,10.60
2019-02-05T09:19:38.599Z,9.47
2019-02-05T09:22:29.038Z,10.83
2019-02-05T09:25:19.599Z,8.63
2019-02-05T09:28:09.698Z,7.57
2019-02-05T09:30:59.879Z,11.47
2019-02-05T09:33:50.453Z,14.63
2019-02-05T09:36:41.198Z,11.40
2019-02-05T09:39:31.419Z,9.33
2019-02-05T09:42:22.337Z,8.70
2019-02-05T09:45:13.278Z,13.13
2019-02-05T09:48:03.759Z,10.73
2019-02-05T09:50:54.819Z,8.37
2019-02-05T09:53:45.078Z,9.33
2019-02-05T09:56:35.939Z,12.67
2019-02-05T09:59:27.338Z,8.93
2019-02-05T10:02:17.839Z,11.37
2019-02-05T10:05:10.359Z,7.80
2019-02-05T10:08:01.220Z,7.57
2019-02-05T10:10:53.358Z,7.60
2019-02-05T10:13:44.580Z,6.20
2019-02-05T10:16:36.421Z,4.67
2019-02-05T10:19:26.638Z,7.37
2019-02-05T10:22:17.301Z,9.63
2019-02-05T10:25:09.359Z,8.67
2019-02-05T10:28:00.218Z,7.47
2019-02-05T10:30:51.160Z,8.37
2019-02-05T10:33:41.187Z,8.13
2019-02-05T10:36:31.960Z,9.30
2019-02-05T10:39:22.118Z,9.77
2019-02-05T10:42:13.058Z,7.43
2019-02-05T10:45:04.878Z,8.17
2019-02-05T10:47:55.058Z,9.80
2019-02-05T10:50:45.938Z,7.77
2019-02-05T10:53:36.858Z,9.73
2019-02-05T10:56:27.338Z,8.33
2019-02-05T10:59:18.319Z,13.13
2019-02-05T11:02:09.198Z,10.30
2019-02-05T11:04:59.439Z,9.83
2019-02-05T11:07:49.997Z,9.30
2019-02-05T11:10:41.203Z,8.07
2019-02-05T11:13:32.120Z,7.93
2019-02-05T11:16:23.395Z,10.10
2019-02-05T11:19:13.698Z,12.03
2019-02-05T11:22:04.280Z,8.20
2019-02-05T11:24:54.640Z,12.63
2019-02-05T11:27:46.171Z,10.13
2019-02-05T11:30:39.480Z,7.53
2019-02-05T11:33:29.984Z,9.40
2019-02-05T11:36:19.839Z,9.97
2019-02-05T11:39:16.049Z,10.33
2019-02-05T11:42:06.319Z,8.70
2019-02-05T11:44:56.482Z,12.13
2019-02-05T11:47:47.143Z,10.30
2019-02-05T11:50:37.678Z,10.77
2019-02-05T11:53:28.432Z,14.43
2019-02-05T11:56:18.783Z,11.10
2019-02-05T11:59:09.038Z,13.70
2019-02-05T12:02:01.241Z,10.60
2019-02-05T12:04:52.298Z,12.97
2019-02-05T12:07:42.400Z,9.10
2019-02-05T12:10:34.359Z,9.87
2019-02-05T12:13:24.400Z,13.53
2019-02-05T12:16:15.301Z,11.13
2019-02-05T12:19:05.563Z,10.80
2019-02-05T12:21:56.725Z,10.53
2019-02-05T12:24:46.960Z,10.23
2019-02-05T12:27:37.843Z,10.03
2019-02-05T12:30:31.059Z,11.47
2019-02-05T12:33:21.220Z,9.87
2019-02-05T12:36:12.458Z,11.60
2019-02-05T12:39:02.979Z,10.50
2019-02-05T12:41:54.477Z,9.58
2019-02-05T12:44:44.859Z,8.08
2019-02-05T12:47:35.406Z,10.80
2019-02-05T12:50:28.719Z,15.10
2019-02-05T12:53:19.018Z,10.35
2019-02-05T12:56:09.040Z,10.65
2019-02-05T12:59:00.699Z,8.95
2019-02-05T13:01:50.861Z,9.73
2019-02-05T13:04:40.902Z,11.28
2019-02-05T13:07:31.578Z,9.88
2019-02-05T13:10:24.858Z,10.25
2019-02-05T13:13:18.350Z,9.55
2019-02-05T13:16:08.098Z,8.15
2019-02-05T13:18:58.799Z,10.63
2019-02-05T13:21:49.001Z,9.60
2019-02-05T13:24:39.598Z,8.53
2019-02-05T13:27:30.216Z,12.82
2019-02-05T13:30:23.338Z,13.83
2019-02-05T13:33:14.658Z,12.73
2019-02-05T13:36:08.579Z,10.00
2019-02-05T13:38:58.622Z,8.43
2019-02-05T13:41:48.936Z,8.78
2019-02-05T13:44:39.598Z,9.48
2019-02-05T13:47:29.858Z,9.20
2019-02-05T13:50:32.539Z,16.97
2019-02-05T13:53:13.942Z,10.45
2019-02-05T13:56:05.321Z,7.78
2019-02-05T13:58:56.258Z,11.00
2019-02-05T14:01:46.450Z,8.93
2019-02-05T14:04:37.459Z,9.40
2019-02-05T14:07:27.832Z,8.48
2019-02-05T14:10:21.680Z,11.43
2019-02-05T14:13:11.771Z,9.03
2019-02-05T14:16:02.299Z,11.08
2019-02-05T14:18:55.200Z,15.08
2019-02-05T14:21:44.968Z,9.75
2019-02-05T14:24:35.219Z,10.95
2019-02-05T14:27:26.039Z,9.33
2019-02-05T14:30:28.078Z,9.60
2019-02-05T14:33:18.378Z,11.93
2019-02-05T14:36:08.921Z,9.90
2019-02-05T14:38:59.284Z,17.50
2019-02-05T14:41:49.698Z,7.90
2019-02-05T14:44:40.558Z,12.17
2019-02-05T14:47:31.579Z,9.37
2019-02-05T14:50:23.946Z,10.20
2019-02-05T14:53:14.818Z,13.77
2019-02-05T14:56:05.440Z,10.00
2019-02-05T14:58:55.824Z,11.33
2019-02-05T15:01:46.200Z,11.10
2019-02-05T15:04:37.358Z,9.67
2019-02-05T15:07:27.859Z,11.00
2019-02-05T15:10:19.122Z,11.13
2019-02-05T15:13:10.118Z,13.40
2019-02-05T15:16:00.502Z,15.93
2019-02-05T15:18:50.899Z,10.83
2019-02-05T15:21:41.999Z,11.20
2019-02-05T15:24:37.880Z,8.57
2019-02-05T15:27:24.399Z,10.17
2019-02-05T15:30:23.118Z,12.87
2019-02-05T15:33:46.621Z,23.87
2019-02-05T15:36:39.680Z,26.43
2019-02-05T15:39:29.818Z,15.23
2019-02-05T15:42:20.098Z,40.27
2019-02-05T15:45:12.579Z,34.33
2019-02-05T15:48:03.259Z,18.57
2019-02-05T15:50:54.658Z,19.57
2019-02-05T15:53:45.243Z,20.47
2019-02-05T15:56:36.080Z,21.00
2019-02-05T15:59:25.813Z,39.57
2019-02-05T16:02:16.559Z,35.10
2019-02-05T16:05:08.079Z,25.90
2019-02-05T16:07:58.978Z,25.93
2019-02-05T16:10:49.406Z,20.30
2019-02-05T16:13:39.478Z,21.03
2019-02-05T16:16:30.799Z,15.27
2019-02-05T16:19:20.662Z,19.07
2019-02-05T16:22:11.281Z,32.50
2019-02-05T16:25:01.473Z,57.63
2019-02-05T16:27:52.301Z,88.87
2019-02-05T16:30:42.455Z,72.27
2019-02-05T16:33:33.050Z,59.17
2019-02-05T16:36:23.801Z,56.00
2019-02-05T16:39:14.497Z,33.40
2019-02-05T16:42:05.687Z,29.97
2019-02-05T16:44:56.239Z,25.10
2019-02-05T16:47:47.038Z,27.13
2019-02-05T16:50:40.559Z,20.83
2019-02-05T16:53:31.157Z,16.13
2019-02-05T16:56:21.853Z,18.33
2019-02-05T16:59:12.238Z,16.57
2019-02-05T17:02:04.078Z,19.70
2019-02-05T17:04:55.000Z,14.83
2019-02-05T17:07:45.538Z,14.40
2019-02-05T17:10:36.239Z,14.73
2019-02-05T17:13:26.554Z,12.97
2019-02-05T17:16:16.849Z,18.30
2019-02-05T17:19:07.578Z,14.80
2019-02-05T17:21:57.438Z,17.60
2019-02-05T17:24:48.238Z,14.93
2019-02-05T17:27:38.511Z,14.17
2019-02-05T17:30:34.080Z,15.77
2019-02-05T17:33:24.339Z,11.40
2019-02-05T17:36:14.638Z,13.27
2019-02-05T17:39:06.544Z,14.33
2019-02-05T17:41:58.638Z,9.53
2019-02-05T17:44:49.239Z,13.97
2019-02-05T17:47:40.159Z,14.63
2019-02-05T17:50:31.078Z,15.23
2019-02-05T17:53:23.138Z,16.70
2019-02-05T17:56:14.167Z,13.30
2019-02-05T17:59:05.838Z,12.30
2019-02-05T18:01:56.677Z,15.77
2019-02-05T18:04:47.598Z,11.80
2019-02-05T18:07:39.859Z,16.50
2019-02-05T18:10:31.138Z,11.80
2019-02-05T18:13:21.538Z,10.83
2019-02-05T18:16:14.689Z,11.60
2019-02-05T18:19:06.478Z,8.37
2019-02-05T18:21:56.838Z,8.60
2019-02-05T18:24:47.060Z,12.23
2019-02-05T18:27:38.779Z,8.73
2019-02-05T18:30:33.378Z,11.10
2019-02-05T18:33:23.438Z,18.60
2019-02-05T18:36:13.962Z,11.23
2019-02-05T18:39:05.398Z,16.47
2019-02-05T18:41:55.738Z,12.27
2019-02-05T18:44:48.171Z,10.87
2019-02-05T18:47:38.202Z,10.50
2019-02-05T18:50:29.391Z,11.47
2019-02-05T18:53:20.058Z,11.33
2019-02-05T18:56:11.732Z,13.23
2019-02-05T18:59:03.260Z,12.80
2019-02-05T19:01:54.181Z,10.43
2019-02-05T19:04:44.860Z,11.97
2019-02-05T19:07:35.182Z,9.83
2019-02-05T19:10:27.778Z,11.53
2019-02-05T19:13:17.900Z,10.97
2019-02-05T19:16:08.138Z,13.60
2019-02-05T19:18:58.979Z,11.37
2019-02-05T19:21:49.799Z,12.23
2019-02-05T19:24:50.278Z,17.33
2019-02-05T19:27:41.379Z,15.57
2019-02-05T19:30:32.699Z,11.97
2019-02-05T19:33:27.206Z,14.47
2019-02-05T19:36:15.998Z,19.73
2019-02-05T19:39:08.819Z,18.20
2019-02-05T19:41:59.583Z,19.07
2019-02-05T19:45:05.040Z,15.80
2019-02-05T19:47:55.682Z,17.43
2019-02-05T19:50:47.072Z,12.63
2019-02-05T19:53:39.141Z,14.40
2019-02-05T19:56:37.885Z,16.43
2019-02-05T19:59:23.612Z,16.97
2019-02-05T20:02:14.341Z,13.13
2019-02-05T20:05:05.231Z,14.87
2019-02-05T20:07:55.792Z,12.77
2019-02-05T20:10:46.998Z,11.60
2019-02-05T20:13:40.515Z,12.07
2019-02-05T20:16:30.499Z,13.50
2019-02-05T20:19:21.305Z,19.80
2019-02-05T20:22:12.727Z,9.63
2019-02-05T20:25:03.618Z,13.93
2019-02-05T20:27:54.921Z,18.67
2019-02-05T20:31:07.410Z,19.80
2019-02-05T20:33:58.019Z,21.87
2019-02-05T20:36:48.619Z,24.60
2019-02-05T20:39:39.145Z,21.70
2019-02-05T20:42:29.177Z,21.93
2019-02-05T20:45:19.351Z,21.57
2019-02-05T20:48:10.165Z,18.10
2019-02-05T20:51:01.271Z,23.87
2019-02-05T20:53:52.149Z,33.57
2019-02-05T20:56:42.714Z,43.63
2019-02-05T20:59:33.038Z,36.60
2019-02-05T21:02:25.069Z,44.97
2019-02-05T21:05:17.300Z,50.70
2019-02-05T21:08:07.938Z,40.57
2019-02-05T21:10:57.819Z,28.40
2019-02-05T21:13:48.418Z,38.97
2019-02-05T21:16:38.541Z,36.07
2019-02-05T21:19:29.203Z,36.27
2019-02-05T21:22:19.823Z,42.37
2019-02-05T21:25:12.242Z,36.40
2019-02-05T21:28:02.663Z,29.87
2019-02-05T21:30:53.039Z,28.73
2019-02-05T21:33:43.341Z,28.60
2019-02-05T21:36:33.822Z,31.03
2019-02-05T21:39:24.763Z,23.03
2019-02-05T21:42:15.562Z,27.23
2019-02-05T21:45:08.080Z,22.97
2019-02-05T21:47:59.299Z,22.90
2019-02-05T21:50:49.349Z,19.67
2019-02-05T21:53:39.441Z,20.40
2019-02-05T21:56:30.339Z,19.50
2019-02-05T21:59:20.570Z,21.73
2019-02-05T22:02:11.681Z,30.77
2019-02-05T22:05:02.542Z,20.13
2019-02-05T22:07:53.519Z,16.97
2019-02-05T22:10:44.551Z,18.87
2019-02-05T22:13:34.895Z,25.80
2019-02-05T22:16:26.479Z,22.50
2019-02-05T22:19:16.741Z,22.10
2019-02-05T22:22:07.078Z,19.07
2019-02-05T22:24:57.375Z,16.03
2019-02-05T22:27:47.441Z,19.70
2019-02-05T22:30:38.293Z,13.63
2019-02-05T22:33:29.220Z,21.20
2019-02-05T22:36:19.988Z,19.83
2019-02-05T22:39:11.580Z,24.53
2019-02-05T22:42:01.860Z,20.03
2019-02-05T22:44:52.559Z,18.47
2019-02-05T22:47:43.324Z,17.90
2019-02-05T22:50:34.139Z,19.30
2019-02-05T22:53:25.137Z,22.03
2019-02-05T22:56:16.110Z,30.90
2019-02-05T22:59:07.352Z,38.67
2019-02-05T23:02:02.501Z,18.47
2019-02-05T23:05:42.979Z,31.83
2019-02-05T23:08:33.438Z,45.47
2019-02-05T23:12:03.529Z,31.60
2019-02-05T23:14:57.459Z,29.43
2019-02-05T23:17:48.440Z,22.97
2019-02-05T23:20:38.302Z,21.93
2019-02-05T23:23:28.400Z,23.33
2019-02-05T23:26:18.819Z,29.10
2019-02-05T23:29:10.638Z,27.40
2019-02-05T23:32:00.739Z,21.63
2019-02-05T23:35:02.108Z,27.97
2019-02-05T23:37:44.686Z,27.50
2019-02-05T23:40:35.786Z,18.73
2019-02-05T23:43:26.976Z,26.13
2019-02-05T23:46:17.981Z,21.37
2019-02-05T23:49:08.719Z,21.50
2019-02-05T23:51:59.758Z,17.80
2019-02-05T23:54:49.858Z,20.93
2019-02-05T23:57:41.078Z,20.83
